Anderson Municipal Darlington Field


Codes: KAID/AID
Name: Anderson Municipal Darlington Field
City: Anderson
Country: United States
Elevation: 919 ft.
Wikipedia:

Photos at Anderson Municipal Darlington Field


   Photos courtesy of SpottingLog. You can add your own sightings and photos by signing up for a free trial today.



No photos found.

Weather at Anderson Municipal Darlington Field


Time (UTC)DescriptionTempratureWindCloud coverageVisibilityPressureHumidity
17-Jun-2024 06:00Clear Sky25°C9 mph, SW0%10000m1016hPa71%
17-Jun-2024 09:00Clear Sky24°C9 mph, S6%10000m1016hPa80%
17-Jun-2024 12:00Light Rain23°C9 mph, SW6%10000m1017hPa80%
17-Jun-2024 15:00Clear Sky28°C13 mph, SW0%10000m1018hPa64%
17-Jun-2024 18:00Few Clouds31°C13 mph, SW22%10000m1017hPa56%
17-Jun-2024 21:00Broken Clouds31°C13 mph, S73%10000m1016hPa55%
18-Jun-2024 00:00Light Rain28°C9 mph, S62%10000m1016hPa71%
18-Jun-2024 03:00Light Rain23°C9 mph, S83%10000m1017hPa90%
18-Jun-2024 06:00Overcast Clouds22°C9 mph, S92%10000m1018hPa91%
18-Jun-2024 09:00Overcast Clouds22°C9 mph, S100%10000m1018hPa89%
18-Jun-2024 12:00Overcast Clouds23°C9 mph, S100%10000m1019hPa88%
18-Jun-2024 15:00Overcast Clouds27°C11 mph, SW100%10000m1020hPa71%
18-Jun-2024 18:00Overcast Clouds29°C11 mph, S100%10000m1019hPa63%
18-Jun-2024 21:00Overcast Clouds32°C7 mph, S95%10000m1019hPa50%
19-Jun-2024 00:00Light Rain26°C7 mph, W97%9681m1020hPa79%
19-Jun-2024 03:00Light Rain23°C7 mph, S100%10000m1020hPa87%
19-Jun-2024 06:00Overcast Clouds23°C7 mph, S100%10000m1020hPa90%
19-Jun-2024 09:00Overcast Clouds22°C7 mph, SW99%10000m1022hPa91%
19-Jun-2024 12:00Light Rain24°C4 mph, SW100%10000m1023hPa87%
19-Jun-2024 15:00Light Rain27°C0 mph, S100%10000m1024hPa72%
19-Jun-2024 18:00Light Rain29°C2 mph, NW100%10000m1024hPa56%
19-Jun-2024 21:00Overcast Clouds31°C2 mph, NW98%10000m1023hPa52%
20-Jun-2024 00:00Light Rain28°C4 mph, E97%10000m1023hPa67%
20-Jun-2024 03:00Overcast Clouds25°C4 mph, E100%10000m1024hPa79%
20-Jun-2024 06:00Overcast Clouds24°C4 mph, E95%10000m1024hPa82%
20-Jun-2024 09:00Overcast Clouds23°C4 mph, E100%10000m1024hPa84%
20-Jun-2024 12:00Overcast Clouds24°C4 mph, E100%10000m1026hPa82%
20-Jun-2024 15:00Overcast Clouds29°C4 mph, E100%10000m1025hPa66%
20-Jun-2024 18:00Light Rain32°C2 mph, SE100%10000m1025hPa49%
20-Jun-2024 21:00Overcast Clouds32°C4 mph, SE100%10000m1023hPa46%
21-Jun-2024 00:00Overcast Clouds29°C4 mph, SE100%10000m1022hPa61%
21-Jun-2024 03:00Overcast Clouds26°C2 mph, S100%10000m1023hPa65%
21-Jun-2024 06:00Overcast Clouds24°C0 mph, S96%10000m1023hPa74%
21-Jun-2024 09:00Light Rain24°C4 mph, SE100%10000m1023hPa79%
21-Jun-2024 12:00Light Rain25°C2 mph, SE100%10000m1023hPa76%
21-Jun-2024 15:00Light Rain29°C4 mph, S96%10000m1023hPa62%
21-Jun-2024 18:00Light Rain31°C7 mph, SW59%10000m1021hPa52%
21-Jun-2024 21:00Broken Clouds33°C4 mph, S71%10000m1019hPa43%
22-Jun-2024 00:00Light Rain26°C7 mph, NW81%10000m1019hPa76%
22-Jun-2024 03:00Light Rain24°C4 mph, SE100%10000m1019hPa76%